createdAt,value
2019-04-21T00:03:40.700Z,35.98
2019-04-21T00:06:31.490Z,34.38
2019-04-21T00:08:56.512Z,35.20
2019-04-21T00:11:29.370Z,39.53
2019-04-21T00:13:52.750Z,41.13
2019-04-21T00:16:12.021Z,40.88
2019-04-21T00:19:01.126Z,37.35
2019-04-21T00:21:30.852Z,40.92
2019-04-21T00:24:23.962Z,39.27
2019-04-21T00:27:03.897Z,39.90
2019-04-21T00:29:36.705Z,40.58
2019-04-21T00:31:58.866Z,39.40
2019-04-21T00:34:15.324Z,39.40
2019-04-21T00:36:56.051Z,40.45
2019-04-21T00:39:43.545Z,42.10
2019-04-21T00:42:08.416Z,43.85
2019-04-21T00:44:27.481Z,45.05
2019-04-21T00:49:57.835Z,43.78
2019-04-21T00:52:53.907Z,41.45
2019-04-21T00:55:44.491Z,44.98
2019-04-21T00:58:33.880Z,44.18
2019-04-21T01:01:01.574Z,44.27
2019-04-21T01:03:36.191Z,48.85
2019-04-21T01:06:03.657Z,48.20
2019-04-21T01:08:31.214Z,51.37
2019-04-21T01:10:52.783Z,49.18
2019-04-21T01:13:41.277Z,49.45
2019-04-21T01:16:07.142Z,48.25
2019-04-21T01:18:33.130Z,41.28
2019-04-21T01:20:43.144Z,42.90
2019-04-21T01:23:12.706Z,40.17
2019-04-21T01:25:50.444Z,40.70
2019-04-21T01:28:32.821Z,43.15
2019-04-21T01:31:05.731Z,41.75
2019-04-21T01:36:01.930Z,44.70
2019-04-21T01:41:08.384Z,43.90
2019-04-21T01:43:33.326Z,42.48
2019-04-21T01:46:00.893Z,41.48
2019-04-21T01:48:31.879Z,44.88
2019-04-21T01:51:00.711Z,41.65
2019-04-21T01:53:36.659Z,44.95
2019-04-21T01:56:16.955Z,45.45
2019-04-21T01:58:40.498Z,48.02
2019-04-21T02:01:21.662Z,45.92
2019-04-21T02:03:54.487Z,44.58
2019-04-21T02:06:24.179Z,47.15
2019-04-21T02:08:49.041Z,49.05
2019-04-21T02:11:23.169Z,48.98
2019-04-21T02:13:58.865Z,46.10
2019-04-21T02:16:18.573Z,48.15
2019-04-21T02:18:50.988Z,48.73
2019-04-21T02:21:15.358Z,44.65
2019-04-21T02:24:01.835Z,49.55
2019-04-21T02:26:28.464Z,45.90
2019-04-21T02:29:00.058Z,50.90
2019-04-21T02:34:04.587Z,44.85
2019-04-21T02:37:05.333Z,45.40
2019-04-21T02:39:16.439Z,46.28
2019-04-21T02:41:51.090Z,45.60
2019-04-21T02:44:21.734Z,48.00
2019-04-21T02:46:47.546Z,50.70
2019-04-21T02:49:32.684Z,44.70
2019-04-21T02:51:47.446Z,45.90
2019-04-21T02:54:40.973Z,51.83
2019-04-21T02:56:51.459Z,44.75
2019-04-21T02:59:29.087Z,46.42
2019-04-21T03:01:56.672Z,48.68
2019-04-21T03:14:56.007Z,49.38
2019-04-21T03:17:22.386Z,48.80
2019-04-21T03:22:20.061Z,44.73
2019-04-21T03:25:20.493Z,44.38
2019-04-21T03:29:54.769Z,46.13
2019-04-21T03:35:15.276Z,47.27
2019-04-21T03:37:26.953Z,47.05
2019-04-21T03:39:50.774Z,45.80
2019-04-21T03:42:25.607Z,45.90
2019-04-21T03:44:54.243Z,43.33
2019-04-21T03:47:24.891Z,46.90
2019-04-21T03:49:56.400Z,45.75
2019-04-21T03:52:30.248Z,44.13
2019-04-21T03:55:47.842Z,46.80
2019-04-21T03:58:13.097Z,44.55
2019-04-21T04:00:34.694Z,49.63
2019-04-21T04:03:10.597Z,49.40
2019-04-21T04:05:55.775Z,58.28
2019-04-21T04:08:39.619Z,51.23
2019-04-21T04:11:08.312Z,51.02
2019-04-21T04:13:32.807Z,51.50
2019-04-21T04:16:05.917Z,54.33
2019-04-21T04:21:15.018Z,52.83
2019-04-21T04:23:43.329Z,51.75
2019-04-21T04:26:09.203Z,52.23
2019-04-21T04:31:20.416Z,52.97
2019-04-21T04:33:48.305Z,53.15
2019-04-21T04:36:21.987Z,47.17
2019-04-21T04:38:51.999Z,51.13
2019-04-21T04:41:16.255Z,49.33
2019-04-21T04:43:50.648Z,51.92
2019-04-21T04:46:22.436Z,50.38
2019-04-21T04:48:47.550Z,52.27
2019-04-21T04:51:12.228Z,55.97
2019-04-21T04:53:43.909Z,50.78
2019-04-21T04:56:10.815Z,48.73
2019-04-21T05:01:21.533Z,56.50
2019-04-21T05:04:05.850Z,55.10
2019-04-21T05:11:40.196Z,53.58
2019-04-21T05:14:03.045Z,53.30
2019-04-21T05:21:37.555Z,61.80
2019-04-21T05:23:48.439Z,49.98
2019-04-21T05:26:09.813Z,49.30
2019-04-21T05:28:40.895Z,53.28
2019-04-21T05:31:25.086Z,52.07
2019-04-21T05:34:03.073Z,55.15
2019-04-21T05:36:59.555Z,52.25
2019-04-21T05:39:27.041Z,55.48
2019-04-21T05:41:48.867Z,53.85
2019-04-21T05:44:35.406Z,56.37
2019-04-21T05:49:35.350Z,52.48
2019-04-21T05:52:04.051Z,53.23
2019-04-21T05:57:05.931Z,51.80
2019-04-21T05:59:40.036Z,56.55
2019-04-21T06:02:20.924Z,53.90
2019-04-21T06:05:02.347Z,52.73
2019-04-21T06:07:13.947Z,57.13
2019-04-21T06:09:48.794Z,49.83
2019-04-21T06:12:10.304Z,54.00
2019-04-21T06:14:44.929Z,54.25
2019-04-21T06:17:19.727Z,51.25
2019-04-21T06:19:45.072Z,53.77
2019-04-21T06:22:07.710Z,54.38
2019-04-21T06:24:54.610Z,50.90
2019-04-21T06:27:16.330Z,56.42
2019-04-21T06:29:43.711Z,48.25
2019-04-21T06:32:38.419Z,53.67
2019-04-21T06:34:59.075Z,59.65
2019-04-21T06:37:34.755Z,54.58
2019-04-21T06:42:16.412Z,53.15
2019-04-21T06:44:54.660Z,52.08
2019-04-21T06:47:24.656Z,47.35
2019-04-21T06:49:45.659Z,48.78
2019-04-21T06:52:30.522Z,48.65
2019-04-21T06:54:49.459Z,54.42
2019-04-21T06:57:18.200Z,54.20
2019-04-21T06:59:43.411Z,47.65
2019-04-21T07:02:30.639Z,48.38
2019-04-21T07:04:51.712Z,50.35
2019-04-21T07:07:18.149Z,46.95
2019-04-21T07:09:52.829Z,48.20
2019-04-21T07:12:14.203Z,45.50
2019-04-21T07:14:50.034Z,50.73
2019-04-21T07:17:17.917Z,50.95
2019-04-21T07:19:49.987Z,45.95
2019-04-21T07:22:22.936Z,51.28
2019-04-21T07:24:49.256Z,44.23
2019-04-21T07:27:16.275Z,47.35
2019-04-21T07:29:54.956Z,45.23
2019-04-21T07:32:19.222Z,47.75
2019-04-21T07:35:00.655Z,48.00
2019-04-21T07:37:17.323Z,44.50
2019-04-21T07:39:45.081Z,45.12
2019-04-21T07:42:13.279Z,45.12
2019-04-21T07:47:20.456Z,44.60
2019-04-21T07:49:57.371Z,44.83
2019-04-21T07:57:31.612Z,48.23
2019-04-21T08:00:15.030Z,45.83
2019-04-21T08:02:38.510Z,47.45
2019-04-21T08:08:08.115Z,45.73
2019-04-21T08:10:40.824Z,46.63
2019-04-21T08:13:14.835Z,45.75
2019-04-21T08:15:39.731Z,43.52
2019-04-21T08:18:11.787Z,43.33
2019-04-21T08:20:34.866Z,48.17
2019-04-21T08:23:13.246Z,42.53
2019-04-21T08:25:46.103Z,45.03
2019-04-21T08:28:09.104Z,43.38
2019-04-21T08:30:43.218Z,44.98
2019-04-21T08:33:16.185Z,44.55
2019-04-21T08:36:03.308Z,44.85
2019-04-21T08:40:45.732Z,43.52
2019-04-21T08:43:21.703Z,43.80
2019-04-21T08:45:46.823Z,49.15
2019-04-21T08:50:44.223Z,42.88
2019-04-21T08:53:14.444Z,43.85
2019-04-21T08:55:58.934Z,42.27
2019-04-21T08:58:34.113Z,41.63
2019-04-21T09:01:08.784Z,42.75
2019-04-21T09:06:57.221Z,39.10
2019-04-21T09:09:10.965Z,42.23
2019-04-21T09:11:40.509Z,46.88
2019-04-21T09:14:13.804Z,41.80
2019-04-21T09:16:40.730Z,42.38
2019-04-21T09:19:11.564Z,44.25
2019-04-21T09:21:46.930Z,44.90
2019-04-21T09:24:18.980Z,40.43
2019-04-21T09:26:43.202Z,40.70
2019-04-21T09:29:05.983Z,41.95
2019-04-21T09:31:32.229Z,45.90
2019-04-21T09:33:59.259Z,39.95
2019-04-21T09:36:35.050Z,41.37
2019-04-21T09:39:03.802Z,47.20
2019-04-21T09:41:27.868Z,42.38
2019-04-21T09:43:57.918Z,42.25
2019-04-21T09:46:51.915Z,41.50
2019-04-21T09:49:20.587Z,42.10
2019-04-21T09:51:45.960Z,40.58
2019-04-21T09:54:22.449Z,38.90
2019-04-21T09:56:52.341Z,41.85
2019-04-21T09:59:20.636Z,40.85
2019-04-21T10:01:54.982Z,40.60
2019-04-21T10:04:16.431Z,42.48
2019-04-21T10:06:45.331Z,38.78
2019-04-21T10:09:17.362Z,40.17
2019-04-21T10:11:44.078Z,42.45
2019-04-21T10:14:13.520Z,42.50
2019-04-21T10:19:21.077Z,42.55
2019-04-21T10:21:50.132Z,41.28
2019-04-21T10:24:18.638Z,39.42
2019-04-21T10:26:47.231Z,40.95
2019-04-21T10:29:22.747Z,41.25
2019-04-21T10:31:46.853Z,41.40
2019-04-21T10:34:17.028Z,42.98
2019-04-21T10:36:46.968Z,38.83
2019-04-21T10:39:15.768Z,40.67
2019-04-21T10:41:45.654Z,40.00
2019-04-21T10:44:14.281Z,37.33
2019-04-21T10:46:45.349Z,35.35
2019-04-21T10:49:20.416Z,39.78
2019-04-21T10:51:49.017Z,37.80
2019-04-21T10:54:17.893Z,38.17
2019-04-21T10:56:47.899Z,38.02
2019-04-21T10:59:16.646Z,38.55
2019-04-21T11:01:45.311Z,43.58
2019-04-21T11:04:27.258Z,41.30
2019-04-21T11:06:52.686Z,45.12
2019-04-21T11:09:22.045Z,44.70
2019-04-21T11:11:53.192Z,42.05
2019-04-21T11:14:21.082Z,44.18
2019-04-21T11:16:51.516Z,45.67
2019-04-21T11:19:20.118Z,41.23
2019-04-21T11:21:49.292Z,42.60
2019-04-21T11:24:18.193Z,45.98
2019-04-21T11:26:47.751Z,41.95
2019-04-21T11:29:17.057Z,45.15
2019-04-21T11:31:47.207Z,44.83
2019-04-21T11:36:44.243Z,37.00
2019-04-21T11:39:25.638Z,39.40
2019-04-21T11:41:45.754Z,36.68
2019-04-21T11:44:14.439Z,31.00
2019-04-21T11:46:42.965Z,34.58
2019-04-21T11:49:12.593Z,33.08
2019-04-21T11:51:41.131Z,30.68
2019-04-21T11:54:10.736Z,30.65
2019-04-21T11:56:39.480Z,30.97
2019-04-21T11:59:08.200Z,27.05
2019-04-21T12:01:36.650Z,26.93
2019-04-21T12:04:05.861Z,30.40
2019-04-21T12:06:40.926Z,27.13
2019-04-21T12:09:06.951Z,27.40
2019-04-21T12:11:39.216Z,27.65
2019-04-21T12:14:08.051Z,28.50
2019-04-21T12:16:37.040Z,27.02
2019-04-21T12:19:07.062Z,29.70
2019-04-21T12:24:06.925Z,33.02
2019-04-21T12:26:35.953Z,35.60
2019-04-21T12:29:06.015Z,31.97
2019-04-21T12:34:12.057Z,28.32
2019-04-21T12:36:42.075Z,28.70
2019-04-21T12:39:12.835Z,22.48
2019-04-21T12:41:42.624Z,23.65
2019-04-21T12:44:11.208Z,22.17
2019-04-21T12:46:40.164Z,20.25
2019-04-21T12:49:09.782Z,21.80
2019-04-21T12:51:39.805Z,23.27
2019-04-21T12:54:09.735Z,23.70
2019-04-21T12:56:38.375Z,23.40
2019-04-21T12:59:07.882Z,22.55
2019-04-21T13:01:38.931Z,26.73
2019-04-21T13:04:08.166Z,24.15
2019-04-21T13:06:37.378Z,22.55
2019-04-21T13:09:10.768Z,26.50
2019-04-21T13:11:37.379Z,24.70
2019-04-21T13:14:06.206Z,24.00
2019-04-21T13:16:39.728Z,22.00
2019-04-21T13:19:09.328Z,22.70
2019-04-21T13:21:38.193Z,23.12
2019-04-21T13:24:07.181Z,24.72
2019-04-21T13:26:42.936Z,22.87
2019-04-21T13:29:06.219Z,23.62
2019-04-21T13:31:36.141Z,23.12
2019-04-21T13:36:33.814Z,21.57
2019-04-21T13:39:33.027Z,23.77
2019-04-21T13:41:47.359Z,22.60
2019-04-21T13:44:15.705Z,19.50
2019-04-21T13:46:45.256Z,22.62
2019-04-21T13:49:14.437Z,20.53
2019-04-21T13:51:43.991Z,21.07
2019-04-21T13:54:13.928Z,22.80
2019-04-21T13:59:11.182Z,20.60
2019-04-21T14:01:39.807Z,21.23
2019-04-21T14:04:09.394Z,19.45
2019-04-21T14:06:38.454Z,22.73
2019-04-21T14:09:09.848Z,23.15
2019-04-21T14:11:38.443Z,21.15
2019-04-21T14:14:08.262Z,21.35
2019-04-21T14:19:05.615Z,20.50
2019-04-21T14:21:34.160Z,21.65
2019-04-21T14:24:02.628Z,22.90
2019-04-21T14:26:32.161Z,18.42
2019-04-21T14:29:01.574Z,21.35
2019-04-21T14:31:30.524Z,18.40
2019-04-21T14:33:59.705Z,19.40
2019-04-21T14:36:28.688Z,19.17
2019-04-21T14:38:58.606Z,20.40
2019-04-21T14:41:28.409Z,19.90
2019-04-21T14:46:31.242Z,19.67
2019-04-21T14:49:17.553Z,17.32
2019-04-21T14:51:47.678Z,18.10
2019-04-21T14:54:33.245Z,21.02
2019-04-21T14:57:03.247Z,17.95
2019-04-21T14:59:33.277Z,17.75
2019-04-21T15:02:02.224Z,16.42
2019-04-21T15:04:31.587Z,19.65
2019-04-21T15:07:01.200Z,17.80
2019-04-21T15:09:31.388Z,17.40
2019-04-21T15:12:00.555Z,16.60
2019-04-21T15:14:29.809Z,17.63
2019-04-21T15:16:58.710Z,17.77
2019-04-21T15:19:28.664Z,19.57
2019-04-21T15:21:58.401Z,17.98
2019-04-21T15:24:27.150Z,17.40
2019-04-21T15:26:56.771Z,17.35
2019-04-21T15:29:26.662Z,16.05
2019-04-21T15:31:56.706Z,16.12
2019-04-21T15:34:27.226Z,18.37
2019-04-21T15:36:55.670Z,14.70
2019-04-21T15:39:25.646Z,17.45
2019-04-21T15:41:54.609Z,16.25
2019-04-21T15:44:23.107Z,15.83
2019-04-21T15:46:52.267Z,15.80
2019-04-21T15:49:23.077Z,25.65
2019-04-21T15:51:51.851Z,18.27
2019-04-21T15:54:20.644Z,17.62
2019-04-21T15:56:51.274Z,20.65
2019-04-21T15:59:36.879Z,16.62
2019-04-21T16:02:24.562Z,19.30
2019-04-21T16:04:53.182Z,19.02
2019-04-21T16:07:24.352Z,18.80
2019-04-21T16:09:54.257Z,18.87
2019-04-21T16:12:23.016Z,19.95
2019-04-21T16:14:52.513Z,20.17
2019-04-21T16:17:21.335Z,21.52
2019-04-21T16:19:49.982Z,24.07
2019-04-21T16:22:18.840Z,19.05
2019-04-21T16:24:47.745Z,19.10
2019-04-21T16:27:17.403Z,20.57
2019-04-21T16:29:46.054Z,21.12
2019-04-21T16:32:17.548Z,18.52
2019-04-21T16:34:50.741Z,18.32
2019-04-21T16:37:14.914Z,18.07
2019-04-21T16:39:43.420Z,19.30
2019-04-21T16:42:12.101Z,18.67
2019-04-21T16:44:41.019Z,21.48
2019-04-21T16:47:09.771Z,23.02
2019-04-21T16:49:38.362Z,18.35
2019-04-21T16:52:18.270Z,17.62
2019-04-21T16:57:33.588Z,20.45
2019-04-21T17:00:04.525Z,19.77
2019-04-21T17:02:34.459Z,19.05
2019-04-21T17:05:04.554Z,21.97
2019-04-21T17:07:33.224Z,18.50
2019-04-21T17:10:02.533Z,20.32
2019-04-21T17:12:31.143Z,21.90
2019-04-21T17:15:15.263Z,19.92
2019-04-21T17:17:49.755Z,21.33
2019-04-21T17:20:13.580Z,20.75
2019-04-21T17:22:31.527Z,21.02
2019-04-21T17:25:00.379Z,20.10
2019-04-21T17:27:29.215Z,19.17
2019-04-21T17:29:59.004Z,20.52
2019-04-21T17:32:34.337Z,21.60
2019-04-21T17:34:58.103Z,21.77
2019-04-21T17:37:29.200Z,21.33
2019-04-21T17:39:59.103Z,23.00
2019-04-21T17:42:38.641Z,21.15
2019-04-21T17:44:59.375Z,21.75
2019-04-21T17:47:41.507Z,18.85
2019-04-21T17:53:00.784Z,24.50
2019-04-21T17:55:36.934Z,23.77
2019-04-21T17:58:16.233Z,24.40
2019-04-21T18:01:10.796Z,26.50
2019-04-21T18:03:32.887Z,24.65
2019-04-21T18:05:50.266Z,24.75
2019-04-21T18:08:30.579Z,26.45
2019-04-21T18:10:50.688Z,27.40
2019-04-21T18:13:12.773Z,27.48
2019-04-21T18:18:28.909Z,28.77
2019-04-21T18:20:59.072Z,28.15
2019-04-21T18:23:46.908Z,31.10
2019-04-21T18:26:23.562Z,29.98
2019-04-21T18:28:38.792Z,36.77
2019-04-21T18:31:10.181Z,32.65
2019-04-21T18:33:42.694Z,31.52
2019-04-21T18:36:19.918Z,31.30
2019-04-21T18:39:04.066Z,30.25
2019-04-21T18:44:48.541Z,31.73
2019-04-21T18:47:19.996Z,35.50
2019-04-21T18:49:26.997Z,36.98
2019-04-21T18:52:22.497Z,40.55
2019-04-21T18:55:00.268Z,30.55
2019-04-21T18:57:26.593Z,36.05
2019-04-21T18:59:47.640Z,33.20
2019-04-21T19:02:18.245Z,35.60
2019-04-21T19:04:46.419Z,33.20
2019-04-21T19:07:29.946Z,34.58
2019-04-21T19:10:18.457Z,36.03
2019-04-21T19:14:58.081Z,36.93
2019-04-21T19:20:11.760Z,38.30
2019-04-21T19:22:33.011Z,37.88
2019-04-21T19:25:23.882Z,38.33
2019-04-21T19:27:33.742Z,40.43
2019-04-21T19:32:37.474Z,40.95
2019-04-21T19:34:52.575Z,41.98
2019-04-21T19:37:22.522Z,39.80
2019-04-21T19:39:57.915Z,44.20
2019-04-21T19:42:30.912Z,42.85
2019-04-21T19:45:05.927Z,44.00
2019-04-21T19:47:42.327Z,46.48
2019-04-21T19:50:05.892Z,43.63
2019-04-21T19:52:30.539Z,45.10
2019-04-21T19:54:50.665Z,49.18
2019-04-21T19:57:19.108Z,49.63
2019-04-21T19:59:51.866Z,46.95
2019-04-21T20:02:18.641Z,48.83
2019-04-21T20:04:54.169Z,48.85
2019-04-21T20:07:33.188Z,49.53
2019-04-21T20:10:11.717Z,51.15
2019-04-21T20:12:42.670Z,51.08
2019-04-21T20:15:10.800Z,55.35
2019-04-21T20:17:36.586Z,56.68
2019-04-21T20:19:50.061Z,59.13
2019-04-21T20:22:18.901Z,57.00
2019-04-21T20:25:11.737Z,58.33
2019-04-21T20:27:49.502Z,62.35
2019-04-21T20:30:27.820Z,63.28
2019-04-21T20:33:13.687Z,66.55
2019-04-21T20:35:43.330Z,65.12
2019-04-21T20:37:55.079Z,68.75
2019-04-21T20:40:21.813Z,70.72
2019-04-21T20:42:58.842Z,71.22
2019-04-21T20:45:34.508Z,76.92
2019-04-21T20:47:48.990Z,74.47
2019-04-21T20:50:27.393Z,73.62
2019-04-21T20:53:01.661Z,77.30
2019-04-21T20:55:22.510Z,79.22
2019-04-21T20:57:55.419Z,80.62
2019-04-21T21:00:32.749Z,80.57
2019-04-21T21:03:07.735Z,83.37
2019-04-21T21:05:27.479Z,87.53
2019-04-21T21:08:08.731Z,87.72
2019-04-21T21:10:34.741Z,88.12
2019-04-21T21:13:14.762Z,88.78
2019-04-21T21:15:29.303Z,90.40
2019-04-21T21:20:35.705Z,89.20
2019-04-21T21:22:58.474Z,94.35
2019-04-21T21:25:41.923Z,87.25
2019-04-21T21:27:59.601Z,92.45
2019-04-21T21:30:32.350Z,87.15
2019-04-21T21:33:11.248Z,87.35
2019-04-21T21:35:30.380Z,89.13
2019-04-21T21:40:38.161Z,90.62
2019-04-21T21:42:51.152Z,84.07
2019-04-21T21:45:25.155Z,80.85
2019-04-21T21:48:06.931Z,84.30
2019-04-21T21:50:29.849Z,83.42
2019-04-21T21:55:21.515Z,82.12
2019-04-21T21:57:55.375Z,84.58
2019-04-21T22:00:23.985Z,80.53
2019-04-21T22:02:56.562Z,79.45
2019-04-21T22:05:25.810Z,71.15
2019-04-21T22:07:54.342Z,72.97
2019-04-21T22:10:23.195Z,79.90
2019-04-21T22:13:01.022Z,72.65
2019-04-21T22:15:24.964Z,73.45
2019-04-21T22:18:15.039Z,75.37
2019-04-21T22:20:44.545Z,72.62
2019-04-21T22:22:59.654Z,70.83
2019-04-21T22:25:29.525Z,73.70
2019-04-21T22:27:53.843Z,68.45
2019-04-21T22:30:29.966Z,71.53
2019-04-21T22:32:59.880Z,68.05
2019-04-21T22:35:31.502Z,69.60
2019-04-21T22:38:10.649Z,73.60
2019-04-21T22:40:33.841Z,70.37
2019-04-21T22:43:04.864Z,71.82
2019-04-21T22:45:25.144Z,68.20
2019-04-21T22:47:58.736Z,65.25
2019-04-21T22:50:30.591Z,71.02
2019-04-21T22:53:04.002Z,66.12
2019-04-21T22:55:33.446Z,67.47
2019-04-21T22:58:01.542Z,63.33
2019-04-21T23:00:39.042Z,67.37
2019-04-21T23:03:09.553Z,70.52
2019-04-21T23:05:36.278Z,68.55
2019-04-21T23:08:04.800Z,70.87
2019-04-21T23:10:31.544Z,69.77
2019-04-21T23:13:07.159Z,67.15
2019-04-21T23:15:38.361Z,68.33
2019-04-21T23:18:23.058Z,68.57
2019-04-21T23:20:56.738Z,71.45
2019-04-21T23:23:22.159Z,69.15
2019-04-21T23:25:51.928Z,68.80
2019-04-21T23:28:14.790Z,67.25
2019-04-21T23:30:54.471Z,71.20
2019-04-21T23:33:08.207Z,65.87
2019-04-21T23:35:38.786Z,69.43
2019-04-21T23:38:06.758Z,66.85
2019-04-21T23:40:33.475Z,62.75
2019-04-21T23:43:09.591Z,65.22
2019-04-21T23:45:38.048Z,58.17
2019-04-21T23:48:18.583Z,59.10
2019-04-21T23:50:43.080Z,58.30
2019-04-21T23:53:03.598Z,55.20
2019-04-21T23:55:32.111Z,60.30
2019-04-21T23:58:09.447Z,58.50
